createdAt,value
2018-03-04T00:00:30.033Z,94957.22
2018-03-04T00:02:56.181Z,94955.22
2018-03-04T00:05:22.118Z,94956.47
2018-03-04T00:07:51.484Z,94953.93
2018-03-04T00:10:17.372Z,94957.55
2018-03-04T00:12:44.077Z,94952.59
2018-03-04T00:15:10.090Z,94952.69
2018-03-04T00:17:38.617Z,94960.73
2018-03-04T00:20:04.505Z,94967.69
2018-03-04T00:22:40.592Z,94966.88
2018-03-04T00:25:06.490Z,94952.02
2018-03-04T00:27:32.392Z,94935.13
2018-03-04T00:30:01.322Z,94945.43
2018-03-04T00:32:27.225Z,94956.33
2018-03-04T00:34:53.144Z,94968.61
2018-03-04T00:37:19.021Z,94974.92
2018-03-04T00:39:44.926Z,94979.90
2018-03-04T00:42:10.824Z,94983.10
2018-03-04T00:44:36.725Z,94978.30
2018-03-04T00:47:02.623Z,94986.99
2018-03-04T00:49:31.073Z,94990.89
2018-03-04T00:51:56.949Z,94986.88
2018-03-04T00:54:26.046Z,94994.88
2018-03-04T00:56:51.928Z,94991.97
2018-03-04T00:59:19.353Z,94997.06
2018-03-04T01:01:45.265Z,94987.90
2018-03-04T01:04:15.079Z,94993.73
2018-03-04T01:06:40.998Z,94961.19
2018-03-04T01:09:07.165Z,94971.75
2018-03-04T01:11:33.085Z,94973.11
2018-03-04T01:13:58.990Z,94971.11
2018-03-04T01:16:25.441Z,94975.67
2018-03-04T01:18:51.387Z,94971.16
2018-03-04T01:21:20.120Z,94967.69
2018-03-04T01:23:46.032Z,94975.70
2018-03-04T01:26:15.112Z,94971.22
2018-03-04T01:28:41.108Z,94965.13
2018-03-04T01:31:10.534Z,94973.64
2018-03-04T01:33:36.440Z,94970.41
2018-03-04T01:36:06.001Z,94973.16
2018-03-04T01:38:32.472Z,94972.23
2018-03-04T01:40:58.903Z,94967.73
2018-03-04T01:43:24.905Z,94969.49
2018-03-04T01:45:50.843Z,94969.55
2018-03-04T01:48:16.747Z,94954.00
2018-03-04T01:50:42.627Z,94954.00
2018-03-04T01:53:12.189Z,94962.16
2018-03-04T01:55:38.213Z,94963.22
2018-03-04T01:58:07.210Z,94969.81
2018-03-04T02:00:33.108Z,94963.63
2018-03-04T02:03:01.069Z,94959.76
2018-03-04T02:05:26.973Z,94964.83
2018-03-04T02:07:55.951Z,94964.16
2018-03-04T02:10:21.889Z,94968.08
2018-03-04T02:12:51.205Z,94983.91
2018-03-04T02:15:17.116Z,94978.99
2018-03-04T02:17:46.146Z,94975.92
2018-03-04T02:20:12.021Z,94970.08
2018-03-04T02:22:37.972Z,94969.86
2018-03-04T02:25:03.868Z,94976.70
2018-03-04T02:27:29.777Z,94978.79
2018-03-04T02:29:56.548Z,94974.83
2018-03-04T02:32:22.438Z,94971.13
2018-03-04T02:34:52.061Z,94963.39
2018-03-04T02:37:17.946Z,94975.17
2018-03-04T02:39:47.013Z,94975.13
2018-03-04T02:42:12.921Z,94972.05
2018-03-04T02:44:40.669Z,94972.39
2018-03-04T02:47:06.590Z,94973.45
2018-03-04T02:49:36.497Z,94981.25
2018-03-04T02:52:02.396Z,94979.50
2018-03-04T02:54:30.129Z,94968.06
2018-03-04T02:56:56.017Z,94963.39
2018-03-04T02:59:21.929Z,94961.38
2018-03-04T03:01:47.817Z,94961.63
2018-03-04T03:04:13.764Z,94960.48
2018-03-04T03:06:41.312Z,94954.88
2018-03-04T03:09:07.413Z,94954.31
2018-03-04T03:11:36.187Z,94950.38
2018-03-04T03:14:02.109Z,94950.98
2018-03-04T03:16:31.260Z,94966.83
2018-03-04T03:18:57.186Z,94964.09
2018-03-04T03:21:26.822Z,94972.02
2018-03-04T03:23:52.720Z,94972.59
2018-03-04T03:26:21.741Z,94963.87
2018-03-04T03:28:47.637Z,94964.17
2018-03-04T03:31:16.689Z,94961.59
2018-03-04T03:33:42.624Z,94964.58
2018-03-04T03:36:08.483Z,94954.17
2018-03-04T03:38:34.387Z,94958.40
2018-03-04T03:41:00.296Z,94958.59
2018-03-04T03:43:26.954Z,94952.94
2018-03-04T03:45:52.837Z,94947.34
2018-03-04T03:48:21.748Z,94946.47
2018-03-04T03:50:47.679Z,94943.86
2018-03-04T03:53:16.606Z,94941.79
2018-03-04T03:55:42.533Z,94936.03
2018-03-04T03:58:12.313Z,94931.37
2018-03-04T04:00:38.224Z,94921.84
2018-03-04T04:03:05.916Z,94936.69
2018-03-04T04:05:31.835Z,94940.19
2018-03-04T04:08:00.746Z,94941.63
2018-03-04T04:10:26.639Z,94935.28
2018-03-04T04:12:52.519Z,94937.42
2018-03-04T04:15:18.440Z,94944.22
2018-03-04T04:17:44.340Z,94947.78
2018-03-04T04:20:13.508Z,94944.80
2018-03-04T04:22:39.396Z,94944.06
2018-03-04T04:25:08.564Z,94939.45
2018-03-04T04:27:34.459Z,94935.95
2018-03-04T04:30:01.227Z,94932.29
2018-03-04T04:32:27.139Z,94932.92
2018-03-04T04:34:55.884Z,94928.92
2018-03-04T04:37:21.771Z,94929.07
2018-03-04T04:39:51.076Z,94926.65
2018-03-04T04:42:16.974Z,94924.83
2018-03-04T04:44:46.143Z,94920.58
2018-03-04T04:47:12.045Z,94920.31
2018-03-04T04:49:37.930Z,94918.52
2018-03-04T04:52:03.835Z,94917.45
2018-03-04T04:54:29.756Z,94910.11
2018-03-04T04:56:57.220Z,94914.50
2018-03-04T04:59:23.336Z,94911.80
2018-03-04T05:01:51.941Z,94910.80
2018-03-04T05:04:17.827Z,94909.64
2018-03-04T05:06:47.416Z,94915.48
2018-03-04T05:09:13.724Z,94911.75
2018-03-04T05:11:41.401Z,94912.73
2018-03-04T05:14:07.297Z,94914.62
2018-03-04T05:16:36.187Z,94929.00
2018-03-04T05:19:02.090Z,94926.06
2018-03-04T05:21:31.078Z,94927.41
2018-03-04T05:23:56.982Z,94918.63
2018-03-04T05:26:22.863Z,94916.17
2018-03-04T05:28:49.714Z,94919.03
2018-03-04T05:31:15.589Z,94915.23
2018-03-04T05:33:42.565Z,94922.59
2018-03-04T05:36:08.484Z,94928.70
2018-03-04T05:38:37.722Z,94932.63
2018-03-04T05:41:03.605Z,94937.25
2018-03-04T05:43:33.460Z,94933.02
2018-03-04T05:45:59.351Z,94927.67
2018-03-04T05:48:27.192Z,94921.36
2018-03-04T05:50:53.122Z,94919.23
2018-03-04T05:53:22.927Z,94918.02
2018-03-04T05:55:48.820Z,94921.45
2018-03-04T05:58:16.047Z,94914.94
2018-03-04T06:00:41.947Z,94910.13
2018-03-04T06:03:08.635Z,94911.98
2018-03-04T06:05:34.539Z,94912.93
2018-03-04T06:08:00.478Z,94912.23
2018-03-04T06:10:28.229Z,94870.06
2018-03-04T06:12:54.122Z,94909.70
2018-03-04T06:15:23.907Z,94910.91
2018-03-04T06:17:49.764Z,94901.84
2018-03-04T06:20:18.811Z,94905.85
2018-03-04T06:22:44.695Z,94907.38
2018-03-04T06:25:13.772Z,94907.65
2018-03-04T06:27:39.665Z,94905.17
2018-03-04T06:30:08.550Z,94898.19
2018-03-04T06:32:34.420Z,94899.91
2018-03-04T06:35:01.116Z,94899.63
2018-03-04T06:37:26.994Z,94910.28
2018-03-04T06:39:52.839Z,94906.34
2018-03-04T06:42:18.714Z,94906.48
2018-03-04T06:44:44.582Z,94915.41
2018-03-04T06:47:13.725Z,94925.66
2018-03-04T06:49:39.611Z,94926.34
2018-03-04T06:52:09.368Z,94927.17
2018-03-04T06:54:35.228Z,94918.96
2018-03-04T06:57:02.647Z,94913.80
2018-03-04T06:59:28.493Z,94906.09
2018-03-04T07:01:57.160Z,94901.71
2018-03-04T07:04:23.107Z,94901.50
2018-03-04T07:06:51.893Z,94895.73
2018-03-04T07:09:17.762Z,94896.28
2018-03-04T07:11:47.340Z,94899.63
2018-03-04T07:14:13.193Z,94893.22
2018-03-04T07:16:39.036Z,94898.88
2018-03-04T07:19:04.897Z,94893.18
2018-03-04T07:21:30.750Z,94904.42
2018-03-04T07:23:58.727Z,94909.62
2018-03-04T07:26:24.603Z,94911.05
2018-03-04T07:28:53.090Z,94905.91
2018-03-04T07:31:19.009Z,94904.47
2018-03-04T07:36:15.625Z,94897.61
2018-03-04T07:38:42.978Z,94901.98
2018-03-04T07:41:08.884Z,94898.30
2018-03-04T07:43:38.082Z,94890.19
2018-03-04T07:46:03.948Z,94887.92
2018-03-04T07:48:31.997Z,94897.02
2018-03-04T07:50:57.882Z,94886.87
2018-03-04T07:53:23.777Z,94876.32
2018-03-04T07:55:49.661Z,94880.89
2018-03-04T07:58:15.584Z,94868.16
2018-03-04T08:00:45.175Z,94862.86
2018-03-04T08:03:11.045Z,94865.73
2018-03-04T08:05:40.041Z,94859.31
2018-03-04T08:08:05.901Z,94855.97
2018-03-04T08:10:34.868Z,94854.27
2018-03-04T08:13:00.740Z,94853.78
2018-03-04T08:15:29.726Z,94848.67
2018-03-04T08:17:55.634Z,94843.73
2018-03-04T08:20:22.337Z,94853.17
2018-03-04T08:22:48.227Z,94833.89
2018-03-04T08:25:26.310Z,94853.64
2018-03-04T08:28:04.426Z,94854.28
2018-03-04T08:30:30.342Z,94850.98
2018-03-04T08:32:56.232Z,94849.66
2018-03-04T08:35:22.127Z,94843.88
2018-03-04T08:37:47.976Z,94833.33
2018-03-04T08:40:13.822Z,94845.91
2018-03-04T08:42:39.698Z,94834.56
2018-03-04T08:45:05.620Z,94841.25
2018-03-04T08:47:31.510Z,94844.77
2018-03-04T08:49:57.365Z,94849.78
2018-03-04T08:52:23.256Z,94850.83
2018-03-04T08:54:49.150Z,94849.17
2018-03-04T08:57:15.032Z,94855.34
2018-03-04T08:59:40.912Z,94857.91
2018-03-04T09:02:06.803Z,94856.23
2018-03-04T09:04:32.667Z,94859.70
2018-03-04T09:06:58.542Z,94864.50
2018-03-04T09:09:24.446Z,94861.38
2018-03-04T09:11:50.370Z,94869.94
2018-03-04T09:14:16.256Z,94862.50
2018-03-04T09:16:42.136Z,94856.65
2018-03-04T09:19:08.725Z,94853.75
2018-03-04T09:21:34.625Z,94846.98
2018-03-04T09:24:03.267Z,94846.39
2018-03-04T09:26:29.151Z,94837.84
2018-03-04T09:31:26.021Z,94833.11
2018-03-04T09:33:53.418Z,94832.17
2018-03-04T09:36:19.314Z,94819.73
2018-03-04T09:38:48.325Z,94814.86
2018-03-04T09:41:14.159Z,94818.98
2018-03-04T09:43:40.034Z,94814.50
2018-03-04T09:46:05.932Z,94803.80
2018-03-04T09:48:31.841Z,94810.21
2018-03-04T09:51:01.275Z,94810.83
2018-03-04T09:53:27.170Z,94806.24
2018-03-04T09:55:54.962Z,94801.09
2018-03-04T09:58:20.862Z,94803.44
2018-03-04T10:00:50.659Z,94798.47
2018-03-04T10:03:16.559Z,94802.58
2018-03-04T10:05:43.734Z,94793.01
2018-03-04T10:08:09.681Z,94787.39
2018-03-04T10:10:38.296Z,94787.74
2018-03-04T10:13:04.278Z,94793.31
2018-03-04T10:15:33.096Z,94774.36
2018-03-04T10:17:58.979Z,94789.11
2018-03-04T10:20:24.851Z,94784.14
2018-03-04T10:22:50.755Z,94774.97
2018-03-04T10:25:16.661Z,94781.44
2018-03-04T10:27:45.962Z,94781.09
2018-03-04T10:30:11.856Z,94783.61
2018-03-04T10:32:39.568Z,94788.74
2018-03-04T10:35:05.462Z,94794.45
2018-03-04T10:37:34.173Z,94800.10
2018-03-04T10:40:00.050Z,94806.01
2018-03-04T10:42:29.270Z,94806.39
2018-03-04T10:44:55.194Z,94806.81
2018-03-04T10:47:24.264Z,94801.93
2018-03-04T10:49:50.187Z,94790.76
2018-03-04T10:52:19.334Z,94791.48
2018-03-04T10:54:45.226Z,94788.80
2018-03-04T10:57:11.092Z,94786.73
2018-03-04T10:59:37.013Z,94787.77
2018-03-04T11:02:03.912Z,94799.45
2018-03-04T11:04:31.080Z,94793.06
2018-03-04T11:06:56.990Z,94794.13
2018-03-04T11:09:25.945Z,94795.36
2018-03-04T11:11:51.841Z,94798.30
2018-03-04T11:14:19.661Z,94796.79
2018-03-04T11:16:45.563Z,94793.25
2018-03-04T11:19:15.896Z,94788.09
2018-03-04T11:21:41.807Z,94787.47
2018-03-04T11:24:09.610Z,94781.66
2018-03-04T11:26:35.514Z,94785.44
2018-03-04T11:29:05.280Z,94777.59
2018-03-04T11:31:31.168Z,94777.13
2018-03-04T11:33:57.081Z,94772.95
2018-03-04T11:36:23.013Z,94771.33
2018-03-04T11:38:48.919Z,94766.98
2018-03-04T11:41:16.212Z,94771.54
2018-03-04T11:43:42.132Z,94759.38
2018-03-04T11:46:11.131Z,94766.47
2018-03-04T11:48:37.027Z,94769.38
2018-03-04T11:51:05.931Z,94762.73
2018-03-04T11:53:31.850Z,94768.77
2018-03-04T11:55:59.648Z,94759.15
2018-03-04T11:58:25.669Z,94758.09
2018-03-04T12:00:54.695Z,94755.96
2018-03-04T12:03:20.558Z,94752.95
2018-03-04T12:05:49.723Z,94748.02
2018-03-04T12:08:15.610Z,94742.58
2018-03-04T12:10:41.484Z,94739.41
2018-03-04T12:13:08.180Z,94726.83
2018-03-04T12:15:34.104Z,94727.31
2018-03-04T12:18:00.724Z,94708.73
2018-03-04T12:20:26.643Z,94710.75
2018-03-04T12:22:56.365Z,94697.38
2018-03-04T12:25:22.324Z,94679.70
2018-03-04T12:27:50.203Z,94675.63
2018-03-04T12:30:16.066Z,94665.86
2018-03-04T12:32:44.562Z,94644.23
2018-03-04T12:35:10.511Z,94656.40
2018-03-04T12:37:39.542Z,94657.86
2018-03-04T12:40:05.430Z,94647.23
2018-03-04T12:42:34.229Z,94647.61
2018-03-04T12:45:00.164Z,94649.29
2018-03-04T12:47:26.232Z,94642.70
2018-03-04T12:49:52.096Z,94651.20
2018-03-04T12:52:17.968Z,94650.30
2018-03-04T12:54:47.006Z,94648.71
2018-03-04T12:57:12.926Z,94640.05
2018-03-04T12:59:40.959Z,94649.42
2018-03-04T13:02:06.835Z,94647.03
2018-03-04T13:04:35.765Z,94650.28
2018-03-04T13:07:01.741Z,94623.47
2018-03-04T13:09:30.897Z,94612.93
2018-03-04T13:11:56.795Z,94613.92
2018-03-04T13:14:25.724Z,94621.86
2018-03-04T13:16:51.653Z,94618.35
2018-03-04T13:19:20.591Z,94616.83
2018-03-04T13:21:46.445Z,94617.66
2018-03-04T13:24:12.362Z,94616.94
2018-03-04T13:26:38.236Z,94606.46
2018-03-04T13:29:04.146Z,94606.25
2018-03-04T13:31:31.642Z,94606.16
2018-03-04T13:33:57.587Z,94598.72
2018-03-04T13:36:26.367Z,94597.18
2018-03-04T13:38:52.271Z,94593.53
2018-03-04T13:41:21.591Z,94590.37
2018-03-04T13:43:47.494Z,94588.85
2018-03-04T13:46:16.384Z,94584.91
2018-03-04T13:48:42.307Z,94588.61
2018-03-04T13:51:11.323Z,94587.08
2018-03-04T13:53:37.224Z,94585.44
2018-03-04T13:56:04.876Z,94588.09
2018-03-04T13:58:30.776Z,94585.03
2018-03-04T14:00:56.668Z,94585.69
2018-03-04T14:03:22.552Z,94574.11
2018-03-04T14:05:48.423Z,94574.20
2018-03-04T14:08:18.100Z,94572.55
2018-03-04T14:10:44.003Z,94575.36
2018-03-04T14:13:11.831Z,94568.49
2018-03-04T14:15:37.743Z,94564.39
2018-03-04T14:18:06.894Z,94573.15
2018-03-04T14:20:32.783Z,94573.09
2018-03-04T14:23:01.813Z,94576.22
2018-03-04T14:25:27.739Z,94571.56
2018-03-04T14:27:55.671Z,94571.88
2018-03-04T14:30:21.581Z,94580.70
2018-03-04T14:32:50.410Z,94564.92
2018-03-04T14:35:16.291Z,94581.55
2018-03-04T14:37:42.199Z,94572.52
2018-03-04T14:40:08.083Z,94566.59
2018-03-04T14:42:33.970Z,94562.70
2018-03-04T14:45:03.582Z,94549.45
2018-03-04T14:47:29.456Z,94545.86
2018-03-04T14:49:58.586Z,94536.63
2018-03-04T14:52:24.506Z,94527.84
2018-03-04T14:54:52.203Z,94520.24
2018-03-04T14:57:18.140Z,94519.52
2018-03-04T14:59:47.121Z,94528.42
2018-03-04T15:02:13.002Z,94527.63
2018-03-04T15:04:41.987Z,94520.77
2018-03-04T15:07:07.884Z,94526.63
2018-03-04T15:09:35.678Z,94525.22
2018-03-04T15:12:01.599Z,94527.03
2018-03-04T15:14:34.360Z,94533.41
2018-03-04T15:17:00.376Z,94544.95
2018-03-04T15:19:26.273Z,94540.52
2018-03-04T15:21:52.186Z,94541.84
2018-03-04T15:24:18.089Z,94549.03
2018-03-04T15:26:43.963Z,94547.16
2018-03-04T15:29:09.879Z,94545.40
2018-03-04T15:31:37.456Z,94545.07
2018-03-04T15:34:03.350Z,94540.80
2018-03-04T15:36:32.300Z,94537.27
2018-03-04T15:38:58.215Z,94545.48
2018-03-04T15:41:27.195Z,94542.39
2018-03-04T15:43:53.103Z,94539.45
2018-03-04T15:46:21.001Z,94535.87
2018-03-04T15:48:46.876Z,94537.98
2018-03-04T15:51:12.763Z,94530.50
2018-03-04T15:53:38.657Z,94528.39
2018-03-04T15:56:04.553Z,94528.82
2018-03-04T15:58:34.265Z,94524.22
2018-03-04T16:01:00.166Z,94523.52
2018-03-04T16:03:28.093Z,94518.59
2018-03-04T16:05:54.007Z,94520.36
2018-03-04T16:08:22.129Z,94523.89
2018-03-04T16:10:48.037Z,94526.71
2018-03-04T16:13:16.829Z,94523.46
2018-03-04T16:15:42.718Z,94526.34
2018-03-04T16:18:13.033Z,94524.01
2018-03-04T16:20:38.919Z,94529.64
2018-03-04T16:23:08.039Z,94532.38
2018-03-04T16:25:33.959Z,94530.34
2018-03-04T16:27:59.824Z,94532.10
2018-03-04T16:30:25.716Z,94522.33
2018-03-04T16:32:51.620Z,94514.05
2018-03-04T16:35:18.945Z,94520.22
2018-03-04T16:37:44.814Z,94519.33
2018-03-04T16:40:12.661Z,94518.00
2018-03-04T16:42:38.594Z,94516.97
2018-03-04T16:45:08.071Z,94508.98
2018-03-04T16:47:33.972Z,94511.36
2018-03-04T16:50:03.709Z,94516.92
2018-03-04T16:52:29.609Z,94516.08
2018-03-04T16:54:56.842Z,94510.73
2018-03-04T16:57:22.744Z,94507.13
2018-03-04T16:59:51.523Z,94508.73
2018-03-04T17:02:17.427Z,94503.19
2018-03-04T17:04:43.315Z,94507.58
2018-03-04T17:07:09.215Z,94503.56
2018-03-04T17:09:35.108Z,94507.53
2018-03-04T17:12:04.664Z,94507.64
2018-03-04T17:14:30.556Z,94511.00
2018-03-04T17:16:59.650Z,94507.76
2018-03-04T17:19:25.544Z,94517.11
2018-03-04T17:21:53.392Z,94510.91
2018-03-04T17:27:09.982Z,94500.05
2018-03-04T17:29:35.846Z,94514.14
2018-03-04T17:32:01.792Z,94507.42
2018-03-04T17:34:27.657Z,94503.88
2018-03-04T17:39:43.614Z,94508.56
2018-03-04T17:42:09.554Z,94517.20
2018-03-04T17:44:35.449Z,94521.34
2018-03-04T17:47:01.373Z,94519.97
2018-03-04T17:49:35.458Z,94535.03
2018-03-04T17:52:01.340Z,94527.77
2018-03-04T17:54:27.229Z,94524.63
2018-03-04T17:56:53.154Z,94531.22
2018-03-04T18:02:13.117Z,94524.16
2018-03-04T18:04:39.037Z,94515.54
2018-03-04T18:07:08.022Z,94504.63
2018-03-04T18:09:33.887Z,94498.56
2018-03-04T18:12:01.803Z,94503.36
2018-03-04T18:14:27.697Z,94499.25
2018-03-04T18:16:55.674Z,94499.30
2018-03-04T18:19:21.560Z,94492.18
2018-03-04T18:21:51.019Z,94499.18
2018-03-04T18:24:16.937Z,94514.61
2018-03-04T18:26:46.649Z,94525.30
2018-03-04T18:29:12.548Z,94529.97
2018-03-04T18:31:41.746Z,94522.70
2018-03-04T18:34:07.649Z,94531.77
2018-03-04T18:36:34.342Z,94541.42
2018-03-04T18:39:00.264Z,94543.48
2018-03-04T18:41:30.483Z,94547.94
2018-03-04T18:43:56.450Z,94536.67
2018-03-04T18:46:25.589Z,94537.46
2018-03-04T18:48:51.512Z,94544.41
2018-03-04T18:51:19.350Z,94552.30
2018-03-04T18:53:45.261Z,94553.61
2018-03-04T18:56:14.262Z,94556.75
2018-03-04T18:58:40.188Z,94550.53
2018-03-04T19:01:07.916Z,94550.43
2018-03-04T19:03:33.813Z,94547.09
2018-03-04T19:06:02.716Z,94530.98
2018-03-04T19:08:28.605Z,94526.80
2018-03-04T19:10:54.487Z,94532.80
2018-03-04T19:13:20.383Z,94553.77
2018-03-04T19:15:46.309Z,94549.54
2018-03-04T19:18:15.296Z,94554.80
2018-03-04T19:20:41.224Z,94553.30
2018-03-04T19:23:11.034Z,94556.31
2018-03-04T19:25:36.950Z,94547.02
2018-03-04T19:28:03.983Z,94548.20
2018-03-04T19:30:29.908Z,94556.66
2018-03-04T19:32:59.143Z,94564.45
2018-03-04T19:35:25.029Z,94571.47
2018-03-04T19:37:53.983Z,94577.41
2018-03-04T19:40:19.874Z,94562.88
2018-03-04T19:42:48.028Z,94564.05
2018-03-04T19:45:13.931Z,94570.86
2018-03-04T19:47:39.851Z,94567.05
2018-03-04T19:50:05.779Z,94558.42
2018-03-04T19:52:31.663Z,94565.53
2018-03-04T19:55:01.508Z,94567.42
2018-03-04T19:57:27.392Z,94555.56
2018-03-04T19:59:56.445Z,94556.20
2018-03-04T20:02:22.311Z,94572.05
2018-03-04T20:04:49.405Z,94586.85
2018-03-04T20:07:15.292Z,94581.57
2018-03-04T20:09:44.163Z,94591.00
2018-03-04T20:12:10.081Z,94596.00
2018-03-04T20:14:39.989Z,94605.39
2018-03-04T20:17:05.892Z,94611.01
2018-03-04T20:19:34.910Z,94614.34
2018-03-04T20:22:00.784Z,94619.28
2018-03-04T20:24:26.692Z,94607.61
2018-03-04T20:26:52.604Z,94613.83
2018-03-04T20:29:18.483Z,94616.16
2018-03-04T20:31:45.245Z,94625.47
2018-03-04T20:34:11.132Z,94627.30
2018-03-04T20:36:39.696Z,94626.55
2018-03-04T20:39:05.622Z,94630.94
2018-03-04T20:41:34.396Z,94630.25
2018-03-04T20:44:00.307Z,94628.74
2018-03-04T20:46:29.102Z,94630.58
2018-03-04T20:48:54.970Z,94638.30
2018-03-04T20:51:23.615Z,94631.97
2018-03-04T20:53:49.533Z,94635.06
2018-03-04T20:56:18.743Z,94636.74
2018-03-04T20:58:44.663Z,94631.34
2018-03-04T21:01:10.575Z,94638.33
2018-03-04T21:03:36.484Z,94643.48
2018-03-04T21:06:02.406Z,94645.05
2018-03-04T21:08:32.246Z,94654.45
2018-03-04T21:10:58.163Z,94655.69
2018-03-04T21:13:24.885Z,94657.09
2018-03-04T21:15:50.807Z,94656.48
2018-03-04T21:18:19.573Z,94664.73
2018-03-04T21:20:45.490Z,94669.70
2018-03-04T21:23:14.393Z,94667.66
2018-03-04T21:25:40.300Z,94670.99
2018-03-04T21:28:09.322Z,94668.56
2018-03-04T21:30:35.224Z,94672.77
2018-03-04T21:33:04.246Z,94678.38
2018-03-04T21:35:30.165Z,94670.63
2018-03-04T21:37:56.082Z,94685.34
2018-03-04T21:40:21.992Z,94680.63
2018-03-04T21:42:47.919Z,94685.39
2018-03-04T21:45:17.636Z,94682.77
2018-03-04T21:47:43.540Z,94690.91
2018-03-04T21:50:11.387Z,94697.87
2018-03-04T21:52:37.303Z,94697.38
2018-03-04T21:55:05.127Z,94696.35
2018-03-04T21:57:31.030Z,94700.11
2018-03-04T21:59:59.719Z,94700.48
2018-03-04T22:02:25.576Z,94697.16
2018-03-04T22:04:54.223Z,94702.30
2018-03-04T22:07:20.139Z,94701.47
2018-03-04T22:09:49.205Z,94706.03
2018-03-04T22:12:15.133Z,94709.45
2018-03-04T22:14:41.085Z,94715.11
2018-03-04T22:17:06.997Z,94717.72
2018-03-04T22:19:32.863Z,94721.91
2018-03-04T22:22:04.784Z,94731.03
2018-03-04T22:24:30.703Z,94731.17
2018-03-04T22:26:56.603Z,94728.77
2018-03-04T22:29:22.814Z,94729.12
2018-03-04T22:31:50.482Z,94739.36
2018-03-04T22:34:16.368Z,94738.53
2018-03-04T22:36:45.816Z,94750.77
2018-03-04T22:39:11.722Z,94751.63
2018-03-04T22:41:39.839Z,94757.91
2018-03-04T22:44:05.749Z,94764.08
2018-03-04T22:46:34.611Z,94769.34
2018-03-04T22:49:00.505Z,94777.92
2018-03-04T22:51:26.407Z,94792.98
2018-03-04T22:53:52.349Z,94796.98
2018-03-04T22:56:18.271Z,94790.58
2018-03-04T22:58:48.133Z,94794.39
2018-03-04T23:01:14.031Z,94792.22
2018-03-04T23:03:41.050Z,94793.97
2018-03-04T23:06:07.002Z,94787.30
2018-03-04T23:08:36.042Z,94783.34
2018-03-04T23:11:01.924Z,94785.66
2018-03-04T23:13:31.082Z,94780.85
2018-03-04T23:15:56.986Z,94775.67
2018-03-04T23:18:27.185Z,94778.14
2018-03-04T23:20:53.055Z,94777.69
2018-03-04T23:23:19.964Z,94774.76
2018-03-04T23:25:45.869Z,94776.21
2018-03-04T23:28:11.761Z,94781.55
2018-03-04T23:30:37.659Z,94785.13
2018-03-04T23:33:03.610Z,94782.84
2018-03-04T23:35:33.093Z,94782.58
2018-03-04T23:37:59.013Z,94792.70
2018-03-04T23:40:28.009Z,94784.66
2018-03-04T23:42:53.892Z,94784.70
2018-03-04T23:45:21.759Z,94800.72
2018-03-04T23:47:47.686Z,94801.47
2018-03-04T23:50:17.607Z,94799.67
2018-03-04T23:52:43.483Z,94798.75
2018-03-04T23:55:10.402Z,94801.14
2018-03-04T23:57:36.338Z,94806.83
